Time;durP1;ratioP1;P1;durP2;ratioP2;P2;SDS_P1;SDS_P2;PMS_P1;PMS_P2;Temp;Humidity;BMP_temperature;BMP_pressure;BME280_temperature;BME280_humidity;BME280_pressure;Samples;Min_cycle;Max_cycle;Signal;HPM_P1;HPM_P2
2022/05/25 00:48:24;;;;;;;2.40;1.70;;;13.00;97.30;;;;;;4735149;29;20477;-87
2022/05/25 00:53:35;;;;;;;4.43;2.10;;;13.10;97.30;;;;;;4954889;29;20442;-88
2022/05/25 00:56:04;;;;;;;2.90;2.07;;;13.10;97.30;;;;;;4953539;29;20493;-88
2022/05/25 00:58:29;;;;;;;2.23;1.80;;;13.10;97.30;;;;;;4954870;29;20809;-88
2022/05/25 01:00:55;;;;;;;2.87;1.70;;;13.10;97.30;;;;;;4953910;29;20415;-88
2022/05/25 01:03:21;;;;;;;1.87;1.60;;;13.00;97.30;;;;;;4953736;29;20239;-88
2022/05/25 01:06:05;;;;;;;3.93;2.20;;;13.00;97.30;;;;;;4954003;29;20673;-87
2022/05/25 01:08:57;;;;;;;2.80;2.00;;;12.90;97.30;;;;;;4937288;29;20418;-88
2022/05/25 01:11:54;;;;;;;1.90;1.70;;;12.80;97.30;;;;;;4937277;29;20411;-88
2022/05/25 01:14:25;;;;;;;2.90;1.97;;;12.80;97.30;;;;;;4953135;29;20942;-89
2022/05/25 01:17:35;;;;;;;2.47;1.90;;;12.80;97.30;;;;;;4937012;29;20473;-88
2022/05/25 01:20:15;;;;;;;2.93;2.03;;;12.80;97.30;;;;;;4922057;29;20415;-89
2022/05/25 01:23:11;;;;;;;2.77;1.83;;;12.90;97.30;;;;;;4953090;29;20979;-89
2022/05/25 01:25:59;;;;;;;2.67;1.80;;;12.90;97.30;;;;;;4937155;29;20848;-89
2022/05/25 01:28:24;;;;;;;6.40;2.30;;;12.90;97.30;;;;;;4937455;29;20446;-89
2022/05/25 01:30:53;;;;;;;2.33;1.80;;;12.90;97.30;;;;;;4954504;29;20442;-88
2022/05/25 01:33:37;;;;;;;4.40;1.73;;;12.90;97.30;;;;;;4952949;29;20188;-88
2022/05/25 01:36:15;;;;;;;4.30;3.07;;;12.90;97.30;;;;;;4953366;29;20524;-87
2022/05/25 01:38:50;;;;;;;2.97;2.00;;;12.80;97.30;;;;;;4952800;29;20419;-88
2022/05/25 01:41:24;;;;;;;7.43;1.73;;;12.80;97.30;;;;;;4937257;29;20916;-88
2022/05/25 01:43:58;;;;;;;4.03;2.13;;;12.80;97.30;;;;;;4952783;29;20437;-88
2022/05/25 01:46:29;;;;;;;3.40;1.93;;;12.80;97.30;;;;;;4952185;29;20441;-88
2022/05/25 01:48:55;;;;;;;3.83;2.43;;;12.80;97.30;;;;;;4965215;28;20827;-89
2022/05/25 01:51:30;;;;;;;3.30;2.10;;;12.70;97.30;;;;;;4967951;28;20406;-87
2022/05/25 01:54:00;;;;;;;3.53;1.73;;;12.70;97.30;;;;;;4968612;28;20413;-88
2022/05/25 01:56:28;;;;;;;4.40;1.97;;;12.70;97.30;;;;;;4969058;28;20565;-87
2022/05/25 01:58:59;;;;;;;2.90;2.10;;;12.70;97.30;;;;;;4969074;28;21278;-87
2022/05/25 02:01:24;;;;;;;5.10;2.40;;;12.70;97.30;;;;;;4968786;28;20411;-89
2022/05/25 02:06:40;;;;;;;3.00;1.80;;;12.80;97.30;;;;;;4953833;29;20265;-89
2022/05/25 02:09:56;;;;;;;4.13;2.20;;;12.80;97.30;;;;;;4968833;28;20426;-89
2022/05/25 02:13:01;;;;;;;4.20;2.10;;;12.80;97.30;;;;;;4966156;28;20422;-89
2022/05/25 02:15:48;;;;;;;2.93;1.90;;;12.70;97.30;;;;;;4968133;28;20979;-89
2022/05/25 02:18:35;;;;;;;2.10;1.93;;;12.70;97.30;;;;;;4968292;28;20465;-90
2022/05/25 02:21:04;;;;;;;4.00;1.60;;;12.70;97.30;;;;;;4968086;28;20415;-89
2022/05/25 02:24:15;;;;;;;4.67;2.30;;;12.60;97.30;;;;;;4967863;28;20414;-89
2022/05/25 02:26:50;;;;;;;3.80;2.20;;;12.50;97.30;;;;;;4953498;29;20434;-89
2022/05/25 02:29:36;;;;;;;2.50;1.80;;;12.50;97.30;;;;;;4968076;28;20465;-89
2022/05/25 02:32:29;;;;;;;3.20;1.90;;;12.40;97.30;;;;;;4953688;29;20400;-89
2022/05/25 02:34:57;;;;;;;2.73;2.30;;;12.30;97.30;;;;;;4967979;28;20426;-89
2022/05/25 02:37:25;;;;;;;7.53;2.03;;;12.30;97.30;;;;;;4967908;28;20462;-88
2022/05/25 02:39:53;;;;;;;4.73;1.90;;;12.30;97.30;;;;;;4967972;28;20418;-88
2022/05/25 02:42:20;;;;;;;3.87;2.00;;;12.40;97.30;;;;;;4968143;28;20422;-88
2022/05/25 02:44:46;;;;;;;2.90;2.40;;;12.40;97.30;;;;;;4968215;28;20767;-87
2022/05/25 02:47:12;;;;;;;2.97;2.13;;;12.50;97.30;;;;;;4953244;29;20431;-88
2022/05/25 02:49:38;;;;;;;2.67;1.83;;;12.50;97.30;;;;;;4952246;29;20430;-87
2022/05/25 02:52:07;;;;;;;3.40;2.00;;;12.50;97.30;;;;;;4952318;29;20470;-88
2022/05/25 02:54:33;;;;;;;2.40;1.83;;;12.60;97.30;;;;;;4952330;29;20469;-88
2022/05/25 02:56:59;;;;;;;3.83;2.30;;;12.60;97.30;;;;;;4951836;29;20502;-88
2022/05/25 02:59:24;;;;;;;3.33;2.33;;;12.60;97.30;;;;;;4951927;29;20194;-88
2022/05/25 03:01:50;;;;;;;4.40;2.40;;;12.60;97.30;;;;;;4951829;29;20194;-88
2022/05/25 03:04:15;;;;;;;5.80;2.40;;;12.60;97.30;;;;;;4951811;29;20187;-88
2022/05/25 03:06:41;;;;;;;2.70;2.30;;;12.70;97.30;;;;;;4951493;29;20270;-88
2022/05/25 03:09:06;;;;;;;2.50;2.13;;;12.60;97.30;;;;;;4951598;29;20183;-88
2022/05/25 03:11:32;;;;;;;2.70;2.10;;;12.70;97.30;;;;;;4951253;29;20191;-87
2022/05/25 03:13:58;;;;;;;4.73;2.37;;;12.70;97.30;;;;;;4951375;29;20259;-86
2022/05/25 03:16:24;;;;;;;2.33;1.97;;;12.70;97.30;;;;;;4951314;29;20275;-88
2022/05/25 03:18:53;;;;;;;4.20;1.90;;;12.70;97.30;;;;;;4951483;29;20423;-88
2022/05/25 03:21:19;;;;;;;2.40;1.93;;;12.70;97.30;;;;;;4951590;29;20769;-88
2022/05/25 03:23:45;;;;;;;2.47;2.20;;;12.70;97.30;;;;;;4951548;29;20740;-88
2022/05/25 03:26:12;;;;;;;5.00;1.77;;;12.70;97.30;;;;;;4951009;29;20535;-88
2022/05/25 03:28:38;;;;;;;3.50;2.27;;;12.60;97.30;;;;;;4951346;29;20183;-87
2022/05/25 03:31:04;;;;;;;2.73;1.90;;;12.60;97.30;;;;;;4951539;29;20434;-88
2022/05/25 03:33:31;;;;;;;2.23;2.10;;;12.60;97.30;;;;;;4951826;29;20179;-88
2022/05/25 03:35:56;;;;;;;4.33;2.40;;;12.60;97.30;;;;;;4953421;28;20435;-88
2022/05/25 03:38:22;;;;;;;2.33;1.90;;;12.60;97.30;;;;;;4954830;29;20463;-88
2022/05/25 03:40:48;;;;;;;2.70;2.20;;;12.60;97.30;;;;;;4955496;29;20183;-86
2022/05/25 03:43:18;;;;;;;2.67;1.93;;;12.60;97.30;;;;;;4956867;29;20465;-88
2022/05/25 03:45:44;;;;;;;3.90;2.17;;;12.60;97.30;;;;;;4955081;28;20226;-88
2022/05/25 03:48:10;;;;;;;4.73;2.47;;;12.70;97.30;;;;;;4962488;28;20517;-88
2022/05/25 03:50:38;;;;;;;6.97;2.47;;;12.60;97.30;;;;;;4971383;28;20432;-88
2022/05/25 03:53:06;;;;;;;2.20;1.90;;;12.60;97.30;;;;;;4971566;28;20427;-88
2022/05/25 03:55:33;;;;;;;2.47;2.10;;;12.60;97.30;;;;;;4972593;28;20469;-88
2022/05/25 03:57:58;;;;;;;23.23;3.47;;;12.60;97.30;;;;;;4971604;28;20887;-88
2022/05/25 04:00:24;;;;;;;2.57;2.03;;;12.60;97.30;;;;;;4972358;28;20437;-88
2022/05/25 04:02:50;;;;;;;3.47;2.23;;;12.60;97.30;;;;;;4971540;28;20234;-89
2022/05/25 04:05:16;;;;;;;2.40;2.20;;;12.70;97.30;;;;;;4971668;28;20523;-88
2022/05/25 04:07:46;;;;;;;3.07;2.10;;;12.70;97.30;;;;;;4971407;28;20187;-87
2022/05/25 04:10:15;;;;;;;3.60;1.97;;;12.70;97.30;;;;;;4970504;28;20435;-87
2022/05/25 04:12:42;;;;;;;2.87;1.70;;;12.70;97.30;;;;;;4970331;28;20419;-88
2022/05/25 04:15:10;;;;;;;2.80;2.00;;;12.70;97.30;;;;;;4970579;28;20489;-87
2022/05/25 04:17:35;;;;;;;4.20;2.40;;;12.70;97.30;;;;;;4972273;28;20995;-87
2022/05/25 04:20:04;;;;;;;3.13;2.40;;;12.80;97.30;;;;;;4972194;28;20423;-88
2022/05/25 04:22:32;;;;;;;4.37;2.17;;;12.80;97.30;;;;;;4955977;29;20187;-87
2022/05/25 04:24:59;;;;;;;3.07;2.43;;;12.80;97.30;;;;;;4969604;28;20422;-87
2022/05/25 04:27:25;;;;;;;3.93;2.40;;;12.80;97.30;;;;;;4954707;29;20985;-87
2022/05/25 04:29:51;;;;;;;4.40;2.80;;;12.80;97.30;;;;;;4969360;28;20425;-87
2022/05/25 04:32:17;;;;;;;3.37;2.20;;;12.80;97.30;;;;;;4970003;28;20434;-86
2022/05/25 04:34:43;;;;;;;4.00;2.60;;;12.80;97.30;;;;;;4970631;28;20211;-87
2022/05/25 04:39:53;;;;;;;3.70;2.10;;;12.80;97.30;;;;;;4955522;29;20254;-87
2022/05/25 04:42:19;;;;;;;3.40;2.40;;;12.90;97.30;;;;;;4954576;29;20502;-87
2022/05/25 04:44:44;;;;;;;8.23;2.50;;;12.90;97.30;;;;;;4954916;29;20175;-87
2022/05/25 04:47:10;;;;;;;3.07;1.90;;;12.90;97.30;;;;;;4968333;28;20203;-86
2022/05/25 04:49:36;;;;;;;10.43;2.53;;;12.90;97.30;;;;;;4953579;29;20218;-86
2022/05/25 04:52:03;;;;;;;2.33;2.20;;;13.00;97.30;;;;;;4952645;29;20266;-88
2022/05/25 04:54:28;;;;;;;5.10;2.30;;;13.00;97.30;;;;;;4953784;28;20427;-89
2022/05/25 04:59:39;;;;;;;3.80;2.03;;;13.00;97.30;;;;;;4955254;29;20309;-87
2022/05/25 05:02:05;;;;;;;4.33;2.30;;;13.00;97.30;;;;;;4953253;29;20732;-87
2022/05/25 05:04:31;;;;;;;4.93;2.63;;;13.10;97.30;;;;;;4952736;29;20474;-87
2022/05/25 05:06:56;;;;;;;8.30;2.50;;;13.10;97.30;;;;;;4954027;29;20462;-87
2022/05/25 05:09:22;;;;;;;4.23;2.50;;;13.20;97.30;;;;;;4955108;29;20702;-86
2022/05/25 05:11:47;;;;;;;5.40;2.90;;;13.20;97.30;;;;;;4955327;29;20238;-88
2022/05/25 05:14:16;;;;;;;7.47;3.17;;;13.20;97.30;;;;;;4956194;29;20590;-87
2022/05/25 05:16:42;;;;;;;3.70;2.43;;;13.30;97.30;;;;;;4953305;29;20215;-87
2022/05/25 05:19:08;;;;;;;7.70;3.30;;;13.30;97.30;;;;;;4952397;29;20450;-87
2022/05/25 05:21:33;;;;;;;6.47;2.73;;;13.40;97.30;;;;;;4952643;29;20246;-87
2022/05/25 05:23:59;;;;;;;4.60;2.40;;;13.40;97.30;;;;;;4952378;29;20426;-87
2022/05/25 05:26:25;;;;;;;4.63;2.60;;;13.40;97.30;;;;;;4952447;29;20249;-87
2022/05/25 05:28:53;;;;;;;4.03;2.43;;;13.50;97.30;;;;;;4952511;29;20238;-87
2022/05/25 05:31:19;;;;;;;5.57;2.50;;;13.50;97.30;;;;;;4952662;29;20887;-87
2022/05/25 05:33:45;;;;;;;4.33;2.53;;;13.50;97.30;;;;;;4951988;29;20692;-87
2022/05/25 05:36:21;;;;;;;3.20;2.17;;;13.60;97.30;;;;;;4952379;29;20574;-87
2022/05/25 05:39:04;;;;;;;4.70;2.20;;;13.60;97.30;;;;;;4933250;29;20183;-86
2022/05/25 05:41:44;;;;;;;4.20;2.00;;;13.70;97.30;;;;;;4933037;29;20408;-87
2022/05/25 05:44:14;;;;;;;2.33;2.00;;;13.70;97.30;;;;;;4917363;29;20456;-87
2022/05/25 05:46:42;;;;;;;2.77;2.20;;;13.70;97.30;;;;;;4934167;29;20840;-87
2022/05/25 05:49:12;;;;;;;2.60;2.17;;;13.80;97.30;;;;;;4949611;29;21330;-88
2022/05/25 05:51:39;;;;;;;5.20;1.97;;;13.80;97.30;;;;;;4949285;28;20451;-86
2022/05/25 05:54:05;;;;;;;2.70;1.97;;;13.90;97.30;;;;;;4948439;29;20419;-87
2022/05/25 05:56:32;;;;;;;2.20;1.90;;;13.90;97.30;;;;;;4948294;29;20444;-88
2022/05/25 05:58:59;;;;;;;1.97;1.70;;;13.90;97.30;;;;;;4947604;28;20179;-86
2022/05/25 06:01:24;;;;;;;3.30;2.10;;;13.90;97.30;;;;;;4948616;28;20419;-87
2022/05/25 06:03:50;;;;;;;2.17;2.00;;;13.90;97.30;;;;;;4932367;29;20416;-85
2022/05/25 06:06:16;;;;;;;3.10;2.10;;;13.90;97.30;;;;;;4948786;28;20554;-82
2022/05/25 06:08:46;;;;;;;2.13;1.90;;;13.90;97.30;;;;;;4949542;28;20424;-86
2022/05/25 06:11:13;;;;;;;2.20;1.93;;;14.00;97.30;;;;;;4948869;29;20223;-83
2022/05/25 06:13:39;;;;;;;5.80;2.63;;;14.00;97.30;;;;;;4948606;28;20424;-84
2022/05/25 06:21:33;;;;;;;4.47;2.13;;;14.00;97.30;;;;;;4953542;29;20513;-83
2022/05/25 06:23:59;;;;;;;3.20;2.00;;;14.00;97.30;;;;;;4968625;28;20419;-84
2022/05/25 06:26:27;;;;;;;3.77;2.33;;;14.00;97.30;;;;;;4967484;28;20443;-84
2022/05/25 06:28:53;;;;;;;2.60;2.17;;;14.00;97.30;;;;;;4967226;28;20421;-84
2022/05/25 06:31:19;;;;;;;2.80;2.17;;;14.00;97.30;;;;;;4949167;28;20423;-84
2022/05/25 06:33:45;;;;;;;8.60;2.13;;;14.10;97.30;;;;;;4948806;28;20226;-84
2022/05/25 06:36:23;;;;;;;3.60;2.17;;;14.10;97.30;;;;;;4950755;29;20430;-85
2022/05/25 06:38:49;;;;;;;3.27;2.40;;;14.10;97.30;;;;;;4947919;29;20183;-85
2022/05/25 06:41:15;;;;;;;3.80;2.20;;;14.20;97.30;;;;;;4956954;28;20509;-83
2022/05/25 06:43:41;;;;;;;2.33;1.80;;;14.20;97.30;;;;;;4966777;28;20431;-84
2022/05/25 06:46:08;;;;;;;3.33;1.93;;;14.30;97.30;;;;;;4953486;29;20960;-84
2022/05/25 06:48:34;;;;;;;4.47;2.20;;;14.30;97.30;;;;;;4969145;28;20824;-84
2022/05/25 06:51:15;;;;;;;3.47;1.90;;;14.40;97.30;;;;;;4970225;28;20511;-84
2022/05/25 06:53:40;;;;;;;3.00;2.23;;;14.40;97.30;;;;;;4968775;28;20179;-83
2022/05/25 06:56:06;;;;;;;4.20;2.03;;;14.40;97.30;;;;;;4969484;28;20456;-84
2022/05/25 06:58:33;;;;;;;2.80;2.17;;;14.50;97.30;;;;;;4969163;28;20732;-83
2022/05/25 07:00:59;;;;;;;3.20;2.23;;;14.60;97.30;;;;;;4969389;28;20434;-86
2022/05/25 07:03:24;;;;;;;5.77;2.10;;;14.60;97.30;;;;;;4969866;28;20634;-87
2022/05/25 07:05:50;;;;;;;3.50;2.10;;;14.70;97.30;;;;;;4968473;28;20195;-85
2022/05/25 07:08:15;;;;;;;3.30;1.90;;;14.80;97.30;;;;;;4967231;28;20191;-84
2022/05/25 07:10:45;;;;;;;5.03;2.00;;;14.80;97.30;;;;;;4953241;28;20642;-85
2022/05/25 07:13:11;;;;;;;2.20;1.97;;;14.90;97.30;;;;;;4955908;29;20203;-84
2022/05/25 07:15:37;;;;;;;4.73;1.90;;;14.90;97.30;;;;;;4971105;28;20450;-85
2022/05/25 07:18:03;;;;;;;3.70;2.00;;;15.00;97.30;;;;;;4970500;28;20454;-84
2022/05/25 07:20:29;;;;;;;6.50;1.87;;;15.00;97.30;;;;;;4969839;28;20497;-84
2022/05/25 07:22:54;;;;;;;6.37;2.20;;;15.00;97.30;;;;;;4970633;28;20249;-85
2022/05/25 07:25:21;;;;;;;3.00;2.00;;;15.10;97.30;;;;;;4955765;28;20519;-84
2022/05/25 07:27:47;;;;;;;3.77;2.37;;;15.10;97.30;;;;;;4970713;28;20282;-84
2022/05/25 07:30:13;;;;;;;2.83;1.90;;;15.20;97.30;;;;;;4970517;28;20511;-84
2022/05/25 07:32:40;;;;;;;2.77;2.50;;;15.20;97.30;;;;;;4970613;28;20186;-84
2022/05/25 07:35:07;;;;;;;5.53;1.93;;;15.20;97.30;;;;;;4970399;28;20714;-84
2022/05/25 07:37:38;;;;;;;3.27;2.00;;;15.30;97.30;;;;;;4970475;28;20498;-85
2022/05/25 07:40:21;;;;;;;3.00;2.03;;;15.30;97.30;;;;;;4970650;28;20686;-86
2022/05/25 07:42:55;;;;;;;7.00;2.43;;;15.40;97.30;;;;;;4955297;29;20502;-85
2022/05/25 07:45:21;;;;;;;2.37;2.03;;;15.40;96.50;;;;;;4970210;28;20901;-84
2022/05/25 07:47:46;;;;;;;4.23;2.33;;;15.40;96.40;;;;;;4970086;28;20474;-85
2022/05/25 07:50:12;;;;;;;5.00;2.47;;;15.40;96.60;;;;;;4969174;28;20277;-85
2022/05/25 07:52:40;;;;;;;9.30;2.30;;;15.40;96.00;;;;;;4970195;28;20187;-84
2022/05/25 07:55:08;;;;;;;2.90;2.07;;;15.50;96.10;;;;;;4969955;28;20234;-85
2022/05/25 07:57:35;;;;;;;5.40;2.00;;;15.50;96.50;;;;;;4969934;28;20975;-84
2022/05/25 08:00:01;;;;;;;3.07;2.00;;;15.60;96.20;;;;;;4955222;28;20425;-84
2022/05/25 08:08:12;;;;;;;2.43;2.10;;;15.90;95.40;;;;;;4955998;29;20449;-84
2022/05/25 08:10:38;;;;;;;5.13;2.50;;;16.10;96.30;;;;;;4970808;28;20415;-85
2022/05/25 08:13:05;;;;;;;3.00;2.60;;;16.20;95.80;;;;;;4972232;28;20427;-84
2022/05/25 08:15:33;;;;;;;4.93;2.53;;;16.30;94.70;;;;;;4957330;29;20442;-85
2022/05/25 08:17:59;;;;;;;3.83;2.30;;;16.40;94.50;;;;;;4972535;28;20473;-85
2022/05/25 08:20:26;;;;;;;2.97;2.43;;;16.50;93.50;;;;;;4971411;28;20421;-84
2022/05/25 08:22:52;;;;;;;2.90;2.37;;;16.50;92.90;;;;;;4969347;28;20411;-84
2022/05/25 08:25:19;;;;;;;4.93;2.33;;;16.50;93.30;;;;;;4969468;28;20926;-85
2022/05/25 08:27:45;;;;;;;3.13;2.07;;;16.50;93.80;;;;;;4969734;28;20274;-84
2022/05/25 08:30:19;;;;;;;6.63;2.50;;;16.50;94.30;;;;;;4969103;28;20506;-84
2022/05/25 08:32:45;;;;;;;3.00;2.20;;;16.40;93.20;;;;;;4969533;28;20460;-84
2022/05/25 08:35:12;;;;;;;3.03;2.20;;;16.50;93.50;;;;;;4969560;28;20461;-84
2022/05/25 08:37:37;;;;;;;4.33;2.40;;;16.50;93.20;;;;;;4962238;28;20506;-84
2022/05/25 08:40:04;;;;;;;2.70;2.20;;;16.50;92.80;;;;;;4953486;28;20419;-84
2022/05/25 08:42:35;;;;;;;4.33;2.30;;;16.50;92.40;;;;;;4953665;29;20266;-84
2022/05/25 08:45:01;;;;;;;4.60;2.63;;;16.60;93.50;;;;;;4954149;29;20467;-85
2022/05/25 08:47:27;;;;;;;3.17;2.50;;;16.70;93.10;;;;;;4953625;29;20832;-85
2022/05/25 08:49:55;;;;;;;3.60;1.90;;;16.80;92.70;;;;;;4969450;28;20422;-84
2022/05/25 08:52:30;;;;;;;6.10;1.87;;;16.90;92.40;;;;;;4953941;29;20190;-84
2022/05/25 08:54:58;;;;;;;7.03;2.00;;;17.00;90.80;;;;;;4956540;28;20411;-83
2022/05/25 08:57:29;;;;;;;2.53;1.87;;;17.10;90.20;;;;;;4955571;29;20494;-84
2022/05/25 09:00:06;;;;;;;3.77;2.10;;;17.20;90.60;;;;;;4955588;29;20447;-85
2022/05/25 09:02:45;;;;;;;4.40;2.00;;;17.30;89.80;;;;;;4953910;28;20433;-84
2022/05/25 09:05:26;;;;;;;3.00;1.87;;;17.40;90.50;;;;;;4969205;28;20497;-84
2022/05/25 09:08:10;;;;;;;7.07;2.40;;;17.60;91.00;;;;;;4953340;29;20415;-84
2022/05/25 09:10:41;;;;;;;1.60;1.50;;;17.80;89.20;;;;;;4969234;28;20426;-84
2022/05/25 09:13:16;;;;;;;2.40;1.80;;;17.90;89.40;;;;;;4953025;29;20422;-84
2022/05/25 09:18:37;;;;;;;2.00;1.50;;;18.20;87.60;;;;;;4954508;28;20465;-84
2022/05/25 09:21:05;;;;;;;4.27;1.90;;;18.40;87.10;;;;;;4953255;29;20419;-84
2022/05/25 09:23:31;;;;;;;5.63;1.40;;;18.50;87.30;;;;;;4952526;28;20438;-84
2022/05/25 09:25:58;;;;;;;2.67;1.90;;;18.50;84.20;;;;;;4952926;29;20522;-84
2022/05/25 09:28:32;;;;;;;1.57;1.50;;;18.60;84.10;;;;;;4953556;28;20446;-84
2022/05/25 09:31:02;;;;;;;4.30;1.83;;;18.70;85.40;;;;;;4953616;29;20431;-84
2022/05/25 09:33:33;;;;;;;2.83;1.50;;;18.70;84.60;;;;;;4953061;28;20425;-84
2022/05/25 09:36:04;;;;;;;2.10;1.50;;;18.80;85.40;;;;;;4969335;28;20948;-84
2022/05/25 09:38:43;;;;;;;1.70;1.67;;;18.80;83.00;;;;;;4952485;29;20470;-84
2022/05/25 09:41:12;;;;;;;3.17;2.03;;;19.00;83.70;;;;;;4969214;28;20453;-86
2022/05/25 09:43:39;;;;;;;2.83;2.20;;;19.20;82.20;;;;;;4953034;29;20419;-84
2022/05/25 09:46:17;;;;;;;2.93;1.80;;;19.40;82.60;;;;;;4952720;29;20446;-84
2022/05/25 09:49:02;;;;;;;2.67;1.60;;;19.50;83.10;;;;;;4952541;28;20474;-84
2022/05/25 09:51:43;;;;;;;2.90;1.97;;;19.60;82.70;;;;;;4952239;28;20810;-84
2022/05/25 09:54:17;;;;;;;4.53;1.97;;;19.60;82.60;;;;;;4954571;28;20419;-84
2022/05/25 09:56:55;;;;;;;2.90;2.60;;;19.50;83.10;;;;;;4968567;28;20450;-85
2022/05/25 09:59:32;;;;;;;4.33;2.00;;;19.40;82.60;;;;;;4953190;29;20445;-85
2022/05/25 10:01:58;;;;;;;4.13;2.03;;;19.30;82.30;;;;;;4953065;29;20425;-85
2022/05/25 10:04:56;;;;;;;3.97;2.10;;;19.30;83.40;;;;;;4952194;28;20419;-84
2022/05/25 10:07:31;;;;;;;3.20;1.57;;;19.40;82.70;;;;;;4951326;28;20639;-85
2022/05/25 10:10:03;;;;;;;2.97;1.63;;;19.70;81.50;;;;;;4951853;28;20800;-86
2022/05/25 10:12:53;;;;;;;3.27;2.13;;;19.80;81.40;;;;;;4967661;28;20419;-86
2022/05/25 10:15:33;;;;;;;2.03;1.80;;;20.00;80.70;;;;;;4950856;29;20420;-84
2022/05/25 10:17:59;;;;;;;3.53;1.90;;;20.10;81.90;;;;;;4952929;29;20458;-84
2022/05/25 10:20:46;;;;;;;2.50;1.60;;;20.20;80.50;;;;;;4951765;29;20425;-84
2022/05/25 10:23:21;;;;;;;1.83;1.60;;;20.10;80.90;;;;;;4951889;29;20413;-84
2022/05/25 10:25:56;;;;;;;2.03;1.50;;;20.10;80.40;;;;;;4952062;28;20521;-83
2022/05/25 10:28:28;;;;;;;4.43;1.87;;;20.00;80.40;;;;;;4953883;29;20433;-84
2022/05/25 10:36:59;;;;;;;5.10;2.43;;;19.50;80.60;;;;;;4954714;28;20494;-86
2022/05/25 10:39:35;;;;;;;8.13;1.57;;;19.50;80.30;;;;;;4953551;29;20419;-85
2022/05/25 10:42:19;;;;;;;3.23;1.63;;;19.50;81.10;;;;;;4951548;28;20502;-86
2022/05/25 10:44:56;;;;;;;5.80;1.80;;;19.60;81.70;;;;;;4951836;28;20429;-86
2022/05/25 10:47:54;;;;;;;3.70;2.13;;;19.80;81.70;;;;;;4972770;28;20942;-86
2022/05/25 10:50:35;;;;;;;3.57;2.00;;;20.10;82.20;;;;;;4973275;28;20422;-85
2022/05/25 10:53:31;;;;;;;2.80;1.80;;;20.30;81.70;;;;;;4973655;28;20530;-86
2022/05/25 10:56:18;;;;;;;6.47;2.87;;;20.50;79.80;;;;;;4973880;28;20550;-85
2022/05/25 10:58:59;;;;;;;3.50;1.60;;;20.50;79.40;;;;;;4957871;28;20516;-85
2022/05/25 11:01:52;;;;;;;6.80;2.07;;;20.70;80.60;;;;;;4973418;28;20426;-85
2022/05/25 11:04:55;;;;;;;4.30;1.50;;;20.90;78.80;;;;;;4973543;28;20471;-87
2022/05/25 11:07:42;;;;;;;1.53;1.50;;;21.00;79.50;;;;;;4958774;29;20526;-85
2022/05/25 11:10:26;;;;;;;1.63;1.30;;;21.10;79.00;;;;;;4959887;29;20418;-85
2022/05/25 11:13:09;;;;;;;3.37;1.57;;;21.20;78.30;;;;;;4975825;28;21125;-86
2022/05/25 11:15:54;;;;;;;2.97;1.60;;;21.30;78.60;;;;;;4960731;28;20790;-85
2022/05/25 11:18:48;;;;;;;1.97;1.60;;;21.30;77.80;;;;;;4975353;28;20462;-85
2022/05/25 11:21:28;;;;;;;2.07;1.40;;;21.30;78.40;;;;;;4959211;29;20403;-85
2022/05/25 11:24:27;;;;;;;2.37;1.50;;;21.40;79.30;;;;;;4959152;29;20953;-86
2022/05/25 11:27:18;;;;;;;2.10;1.50;;;21.60;77.30;;;;;;4959167;28;20964;-85
2022/05/25 11:30:03;;;;;;;4.80;1.73;;;21.70;78.30;;;;;;4975378;28;20450;-84
2022/05/25 11:32:38;;;;;;;6.00;1.70;;;21.70;78.30;;;;;;4975486;28;20474;-86
2022/05/25 11:35:11;;;;;;;2.50;1.40;;;21.70;77.00;;;;;;4975626;28;20424;-84
2022/05/25 11:37:57;;;;;;;4.07;1.43;;;21.70;77.50;;;;;;4975275;28;20462;-84
2022/05/25 11:40:37;;;;;;;2.40;2.00;;;21.70;77.00;;;;;;4975435;28;20899;-84
2022/05/25 11:43:39;;;;;;;5.00;1.70;;;21.80;78.50;;;;;;4959076;28;20407;-85
2022/05/25 11:46:30;;;;;;;2.60;1.80;;;22.00;77.50;;;;;;4975213;28;20956;-85
2022/05/25 11:49:10;;;;;;;4.23;1.70;;;22.20;78.00;;;;;;4958843;28;20502;-85
2022/05/25 11:52:02;;;;;;;2.60;1.27;;;22.30;76.00;;;;;;4960399;28;20402;-86
2022/05/25 11:54:50;;;;;;;2.00;1.30;;;22.40;76.90;;;;;;4948980;29;20760;-84
2022/05/25 11:57:39;;;;;;;26.77;3.70;;;22.50;75.00;;;;;;4954961;28;20737;-85
2022/05/25 12:00:26;;;;;;;4.27;1.40;;;22.60;72.40;;;;;;4953766;29;20454;-85
2022/05/25 12:03:22;;;;;;;2.00;1.30;;;22.70;73.60;;;;;;4953323;29;20858;-84
2022/05/25 12:06:06;;;;;;;5.53;1.27;;;22.90;73.80;;;;;;4969923;28;20501;-85
2022/05/25 12:08:31;;;;;;;4.80;1.00;;;22.80;72.50;;;;;;4969322;28;20423;-83
2022/05/25 12:11:26;;;;;;;2.50;1.37;;;22.60;73.20;;;;;;4966666;28;20968;-85
2022/05/25 12:14:23;;;;;;;3.90;1.47;;;22.50;74.40;;;;;;4968220;28;20657;-84
2022/05/25 12:16:51;;;;;;;1.53;1.27;;;22.40;74.00;;;;;;4965026;28;20458;-85
2022/05/25 12:19:21;;;;;;;3.00;1.23;;;22.40;73.90;;;;;;4970027;28;20474;-84
2022/05/25 12:22:13;;;;;;;2.40;1.50;;;22.60;74.40;;;;;;4969388;28;20924;-85
2022/05/25 12:24:41;;;;;;;3.93;1.50;;;22.70;73.20;;;;;;4969780;28;20423;-84
2022/05/25 12:27:15;;;;;;;3.20;1.53;;;22.50;72.90;;;;;;4973308;28;20439;-83
2022/05/25 12:29:46;;;;;;;2.07;1.03;;;22.30;71.80;;;;;;4956973;29;20422;-83
2022/05/25 12:32:12;;;;;;;1.20;1.10;;;22.20;74.20;;;;;;4972946;28;20429;-83
2022/05/25 12:34:46;;;;;;;2.10;1.40;;;22.30;74.30;;;;;;4957073;28;20455;-81
2022/05/25 12:37:33;;;;;;;2.60;1.70;;;22.40;73.30;;;;;;4968167;28;20559;-82
2022/05/25 12:40:03;;;;;;;9.63;1.63;;;22.50;72.50;;;;;;4935757;29;20427;-82
2022/05/25 12:42:28;;;;;;;2.67;1.30;;;22.40;72.60;;;;;;4952683;28;20482;-84
2022/05/25 12:50:54;;;;;;;8.70;1.40;;;22.80;72.90;;;;;;4958986;29;20422;-82
2022/05/25 12:53:38;;;;;;;1.57;1.10;;;23.10;72.70;;;;;;4956284;29;20947;-82
2022/05/25 12:56:19;;;;;;;2.73;1.70;;;23.20;70.50;;;;;;4957022;28;20651;-81
2022/05/25 12:58:47;;;;;;;2.70;1.00;;;23.20;72.10;;;;;;4957131;29;20497;-82
2022/05/25 13:01:22;;;;;;;1.10;1.10;;;23.40;71.40;;;;;;4956325;28;20430;-83
2022/05/25 13:03:48;;;;;;;3.93;1.27;;;23.40;70.70;;;;;;4955900;28;20423;-82
2022/05/25 13:06:21;;;;;;;2.30;1.10;;;23.50;72.10;;;;;;4957227;28;20431;-83
2022/05/25 13:08:47;;;;;;;2.63;1.50;;;23.60;70.10;;;;;;4955528;28;20175;-82
2022/05/25 13:11:36;;;;;;;5.07;1.40;;;23.60;70.40;;;;;;4955232;29;20648;-83
2022/05/25 13:14:17;;;;;;;2.20;1.33;;;23.60;71.00;;;;;;4955523;28;20743;-82
2022/05/25 13:16:45;;;;;;;3.60;1.07;;;23.50;70.40;;;;;;4957186;28;20820;-80
2022/05/25 13:19:30;;;;;;;4.43;1.30;;;23.60;71.60;;;;;;4959039;28;20417;-82
2022/05/25 13:22:03;;;;;;;1.23;1.10;;;23.70;72.60;;;;;;4958224;29;20956;-81
2022/05/25 13:24:41;;;;;;;1.67;1.30;;;23.70;69.80;;;;;;4958297;28;20430;-81
2022/05/25 13:27:24;;;;;;;1.87;1.13;;;23.80;69.50;;;;;;4958929;28;20584;-82
2022/05/25 13:30:23;;;;;;;6.10;1.30;;;23.80;69.70;;;;;;4956425;29;20426;-84
2022/05/25 13:33:01;;;;;;;1.33;1.20;;;23.90;67.80;;;;;;4959259;29;20438;-80
2022/05/25 13:35:35;;;;;;;6.17;1.33;;;23.90;67.90;;;;;;4959030;28;20435;-81
2022/05/25 13:38:25;;;;;;;1.73;1.13;;;24.10;69.60;;;;;;4960148;28;20454;-81
2022/05/25 13:40:56;;;;;;;1.40;1.20;;;24.30;68.10;;;;;;4943534;29;20419;-80
2022/05/25 13:43:48;;;;;;;2.03;1.00;;;24.40;67.10;;;;;;4960133;29;20411;-81
2022/05/25 13:46:46;;;;;;;2.77;1.30;;;24.50;66.60;;;;;;4944660;29;20478;-81
2022/05/25 13:49:24;;;;;;;2.30;1.13;;;24.70;65.80;;;;;;4958684;29;20474;-82
2022/05/25 13:51:51;;;;;;;3.80;1.00;;;24.70;65.20;;;;;;4959398;28;20411;-81
2022/05/25 13:54:20;;;;;;;4.50;1.10;;;24.80;65.20;;;;;;4939286;29;20964;-81
2022/05/25 13:56:46;;;;;;;1.27;1.20;;;24.80;66.70;;;;;;4956304;28;20695;-82
2022/05/25 13:59:11;;;;;;;1.70;1.07;;;24.90;64.80;;;;;;4956833;29;20457;-83
2022/05/25 14:01:37;;;;;;;1.97;1.20;;;24.90;64.40;;;;;;4938544;29;20203;-81
2022/05/25 14:04:23;;;;;;;2.00;1.10;;;24.50;64.40;;;;;;4939471;29;20195;-83
2022/05/25 14:06:49;;;;;;;4.27;1.27;;;24.20;64.80;;;;;;4955260;28;20203;-83
2022/05/25 14:11:59;;;;;;;5.00;1.10;;;24.20;64.50;;;;;;4957522;29;20474;-81
2022/05/25 14:14:29;;;;;;;9.40;1.93;;;24.20;64.40;;;;;;4954747;29;20418;-84
2022/05/25 14:17:01;;;;;;;3.17;1.10;;;24.20;64.60;;;;;;4953905;29;20203;-82
2022/05/25 14:19:29;;;;;;;1.27;1.13;;;24.10;64.50;;;;;;4954013;29;20466;-81
2022/05/25 14:21:59;;;;;;;1.40;0.90;;;23.90;65.60;;;;;;4955081;29;20415;-82
2022/05/25 14:24:33;;;;;;;1.90;1.00;;;23.80;65.60;;;;;;4956854;29;20441;-82
2022/05/25 14:27:20;;;;;;;4.73;1.20;;;24.00;65.90;;;;;;4957276;28;20438;-83
2022/05/25 14:29:46;;;;;;;4.97;1.20;;;24.00;65.80;;;;;;4956893;28;20481;-82
2022/05/25 14:32:15;;;;;;;3.47;1.30;;;23.90;66.60;;;;;;4955296;29;20422;-81
2022/05/25 14:34:46;;;;;;;1.93;1.17;;;23.70;66.10;;;;;;4955658;29;20416;-81
2022/05/25 14:37:13;;;;;;;6.33;1.47;;;23.50;66.20;;;;;;4958983;28;20610;-81
2022/05/25 14:39:40;;;;;;;2.80;1.47;;;23.70;66.60;;;;;;4955850;29;20852;-81
2022/05/25 14:42:17;;;;;;;3.27;1.20;;;23.90;66.70;;;;;;4957051;28;20794;-81